Time;durP1;ratioP1;P1;durP2;ratioP2;P2;SDS_P1;SDS_P2;PMS_P1;PMS_P2;Temp;Humidity;BMP_temperature;BMP_pressure;BME280_temperature;BME280_humidity;BME280_pressure;Samples;Min_cycle;Max_cycle;Signal;HPM_P1;HPM_P2
2022/10/13 00:00:58;;;;;;;29.58;13.98;;;10.00;99.90;;;;;;4940502;29;20490;-71
2022/10/13 00:03:24;;;;;;;30.95;14.63;;;;;;;;;;4940126;29;20047;-71
2022/10/13 00:05:50;;;;;;;27.08;13.60;;;9.90;99.90;;;;;;4940098;29;20048;-70
2022/10/13 00:08:19;;;;;;;25.35;13.27;;;9.80;99.90;;;;;;4940462;29;20082;-70
2022/10/13 00:10:47;;;;;;;29.70;14.02;;;10.00;99.90;;;;;;4939961;29;20062;-70
2022/10/13 00:13:14;;;;;;;29.30;14.82;;;10.10;99.90;;;;;;4940092;29;20067;-70
2022/10/13 00:15:43;;;;;;;30.40;13.13;;;10.00;99.90;;;;;;4939958;29;20562;-70
2022/10/13 00:18:08;;;;;;;22.20;12.88;;;10.10;99.90;;;;;;4940046;29;20070;-71
2022/10/13 00:20:35;;;;;;;21.35;11.98;;;10.00;99.90;;;;;;4957265;28;20524;-70
2022/10/13 00:23:00;;;;;;;31.13;14.68;;;10.20;99.90;;;;;;4939771;29;20035;-70
2022/10/13 00:25:26;;;;;;;22.05;12.52;;;10.00;99.90;;;;;;4939897;29;20409;-70
2022/10/13 00:27:52;;;;;;;26.80;12.85;;;10.00;99.90;;;;;;4939890;29;20043;-71
2022/10/13 00:30:17;;;;;;;25.58;13.63;;;10.00;99.90;;;;;;4939772;29;20054;-71
2022/10/13 00:32:43;;;;;;;19.60;12.57;;;10.00;99.90;;;;;;4957124;29;20089;-70
2022/10/13 00:35:09;;;;;;;24.23;12.57;;;10.10;99.90;;;;;;4956786;29;20039;-70
2022/10/13 00:37:34;;;;;;;28.98;14.52;;;10.10;99.90;;;;;;4939816;29;20047;-70
2022/10/13 00:40:00;;;;;;;22.98;12.80;;;9.90;99.90;;;;;;4939517;29;20035;-70
2022/10/13 00:42:26;;;;;;;24.80;13.77;;;9.90;99.90;;;;;;4939539;29;20046;-70
2022/10/13 00:45:00;;;;;;;28.10;14.00;;;10.50;99.90;;;;;;4956521;29;20054;-70
2022/10/13 00:47:30;;;;;;;31.05;15.30;;;10.20;99.90;;;;;;4939523;28;20387;-70
2022/10/13 00:49:57;;;;;;;31.23;13.80;;;10.10;99.90;;;;;;4955808;29;20031;-70
2022/10/13 00:52:24;;;;;;;24.27;12.95;;;10.00;99.90;;;;;;4956410;29;20047;-70
2022/10/13 00:54:50;;;;;;;24.08;13.27;;;10.10;99.90;;;;;;4956755;29;20125;-70
2022/10/13 00:57:17;;;;;;;24.92;13.52;;;10.00;99.90;;;;;;4956235;28;20529;-70
2022/10/13 00:59:43;;;;;;;23.23;13.10;;;;;;;;;;4938507;29;20072;-70
2022/10/13 01:02:09;;;;;;;25.55;13.20;;;10.10;99.90;;;;;;4939364;29;20118;-70
2022/10/13 01:04:39;;;;;;;25.27;13.02;;;10.00;99.90;;;;;;4939211;29;20047;-70
2022/10/13 01:07:05;;;;;;;24.75;12.68;;;10.10;99.90;;;;;;4938863;28;20051;-70
2022/10/13 01:09:36;;;;;;;21.70;13.68;;;10.00;99.90;;;;;;4939172;29;20084;-70
2022/10/13 01:12:24;;;;;;;24.77;12.88;;;10.10;99.90;;;;;;4938858;29;20414;-70
2022/10/13 01:15:19;;;;;;;26.48;13.55;;;10.10;99.90;;;;;;4939193;29;20070;-70
2022/10/13 01:18:00;;;;;;;26.25;14.35;;;10.10;99.90;;;;;;4956320;29;20477;-70
2022/10/13 01:21:06;;;;;;;21.80;12.77;;;10.20;99.90;;;;;;4938825;29;20047;-70
2022/10/13 01:23:38;;;;;;;28.20;12.77;;;10.20;99.90;;;;;;4938711;29;20039;-70
2022/10/13 01:26:13;;;;;;;28.40;13.82;;;10.40;99.90;;;;;;4938754;29;20122;-70
2022/10/13 01:28:51;;;;;;;22.45;13.77;;;10.30;99.90;;;;;;4938589;29;20074;-70
2022/10/13 01:31:36;;;;;;;24.63;13.80;;;10.40;99.90;;;;;;4938608;29;20058;-70
2022/10/13 01:34:35;;;;;;;29.50;14.65;;;10.20;99.90;;;;;;4938877;29;20390;-70
2022/10/13 01:37:13;;;;;;;27.25;14.13;;;10.10;99.90;;;;;;4955738;29;20054;-70
2022/10/13 01:39:44;;;;;;;26.80;13.63;;;10.00;99.90;;;;;;4955693;29;20039;-70
2022/10/13 01:42:20;;;;;;;23.88;13.88;;;10.10;99.90;;;;;;4938565;29;20050;-70
2022/10/13 01:44:52;;;;;;;28.40;14.10;;;9.90;99.90;;;;;;4955558;29;20126;-70
2022/10/13 01:47:19;;;;;;;23.27;13.88;;;9.90;99.90;;;;;;4955633;29;20474;-70
2022/10/13 01:49:46;;;;;;;26.60;13.98;;;9.80;99.90;;;;;;4955379;29;20099;-70
2022/10/13 01:52:15;;;;;;;24.75;13.48;;;9.90;99.90;;;;;;4938713;29;20039;-70
2022/10/13 01:54:41;;;;;;;23.85;13.50;;;9.90;99.90;;;;;;4938130;29;20047;-70
2022/10/13 01:57:45;;;;;;;26.02;14.45;;;9.90;99.90;;;;;;4955501;28;20047;-70
2022/10/13 02:00:17;;;;;;;28.42;14.00;;;9.90;99.90;;;;;;4915107;29;20059;-70
2022/10/13 02:03:00;;;;;;;21.42;13.68;;;9.90;99.90;;;;;;4915184;29;20501;-70
2022/10/13 02:05:41;;;;;;;26.20;14.27;;;9.80;99.90;;;;;;4924780;29;20062;-70
2022/10/13 02:08:14;;;;;;;27.80;14.38;;;10.00;99.90;;;;;;4938125;29;20055;-70
2022/10/13 02:10:45;;;;;;;24.13;14.13;;;9.80;99.90;;;;;;4955364;28;20050;-70
2022/10/13 02:13:15;;;;;;;23.92;12.65;;;10.00;99.90;;;;;;4938071;29;20055;-70
2022/10/13 02:15:49;;;;;;;24.60;13.85;;;10.20;99.90;;;;;;4937775;29;20043;-70
2022/10/13 02:18:18;;;;;;;33.42;14.07;;;10.20;99.90;;;;;;4938241;29;20055;-70
2022/10/13 02:20:45;;;;;;;25.83;13.85;;;10.20;99.90;;;;;;4937773;29;20042;-70
2022/10/13 02:23:14;;;;;;;23.67;13.48;;;10.10;99.90;;;;;;4937672;29;20043;-70
2022/10/13 02:25:41;;;;;;;25.05;13.65;;;10.10;99.90;;;;;;4937657;29;20529;-70
2022/10/13 02:28:08;;;;;;;28.17;14.27;;;10.20;99.90;;;;;;4955173;29;20043;-70
2022/10/13 02:30:33;;;;;;;25.25;14.20;;;10.20;99.90;;;;;;4937687;29;20098;-70
2022/10/13 02:33:00;;;;;;;35.05;14.40;;;10.20;99.90;;;;;;4921788;29;20047;-70
2022/10/13 02:35:26;;;;;;;25.45;14.30;;;10.20;99.90;;;;;;4937633;29;20486;-70
2022/10/13 02:37:52;;;;;;;25.80;13.30;;;10.10;99.90;;;;;;4955039;29;20067;-70
2022/10/13 02:40:17;;;;;;;21.10;13.77;;;10.00;99.90;;;;;;4954960;29;20066;-70
2022/10/13 02:42:43;;;;;;;34.45;15.93;;;;;;;;;;4937467;29;20101;-70
2022/10/13 02:45:09;;;;;;;29.40;14.77;;;10.00;99.90;;;;;;4939949;29;20545;-70
2022/10/13 02:47:35;;;;;;;26.85;13.70;;;10.20;99.90;;;;;;4937291;29;20039;-70
2022/10/13 02:50:01;;;;;;;29.65;14.32;;;;;;;;;;4954937;29;20075;-70
2022/10/13 02:52:26;;;;;;;28.27;14.57;;;10.20;99.90;;;;;;4937538;29;20078;-70
2022/10/13 02:54:52;;;;;;;33.20;15.27;;;;;;;;;;4937364;29;20125;-70
2022/10/13 02:57:18;;;;;;;34.53;15.02;;;10.20;99.90;;;;;;4937449;29;20055;-70
2022/10/13 02:59:44;;;;;;;30.40;15.90;;;10.20;99.90;;;;;;4954603;28;20042;-70
2022/10/13 03:02:09;;;;;;;34.72;16.02;;;10.20;99.90;;;;;;4937410;29;20041;-70
2022/10/13 03:04:35;;;;;;;29.70;15.57;;;10.30;99.90;;;;;;4954500;29;20035;-70
2022/10/13 03:07:00;;;;;;;29.55;15.35;;;10.20;99.90;;;;;;4937133;29;20047;-70
2022/10/13 03:09:26;;;;;;;30.95;15.10;;;10.40;99.90;;;;;;4937399;29;20044;-70
2022/10/13 03:11:52;;;;;;;32.58;16.17;;;10.20;99.90;;;;;;4937365;28;20098;-70
2022/10/13 03:14:18;;;;;;;30.70;15.63;;;10.20;99.90;;;;;;4954583;29;20037;-70
2022/10/13 03:16:43;;;;;;;31.27;17.13;;;10.20;99.90;;;;;;4954436;29;20043;-70
2022/10/13 03:19:09;;;;;;;31.33;16.52;;;10.10;99.90;;;;;;4954331;29;20110;-70
2022/10/13 03:21:36;;;;;;;32.75;16.42;;;9.80;99.90;;;;;;4955678;28;20066;-70
2022/10/13 03:24:04;;;;;;;29.67;15.82;;;10.00;99.90;;;;;;4940825;29;20039;-70
2022/10/13 03:26:30;;;;;;;32.22;17.70;;;;;;;;;;4940871;29;20394;-70
2022/10/13 03:28:56;;;;;;;27.70;16.77;;;10.00;99.90;;;;;;4940897;29;20051;-70
2022/10/13 03:31:21;;;;;;;36.03;17.38;;;10.00;99.90;;;;;;4958152;29;20043;-70
2022/10/13 03:33:47;;;;;;;28.20;17.13;;;10.00;99.90;;;;;;4940644;29;20517;-70
2022/10/13 03:36:13;;;;;;;32.20;17.00;;;10.00;99.90;;;;;;4957875;29;20031;-70
2022/10/13 03:38:39;;;;;;;39.63;17.73;;;10.10;99.90;;;;;;4957942;28;20043;-70
2022/10/13 03:41:16;;;;;;;30.52;16.60;;;10.10;99.90;;;;;;4957829;28;20039;-70
2022/10/13 03:43:43;;;;;;;33.03;18.30;;;10.10;99.90;;;;;;4957997;29;20035;-70
2022/10/13 03:46:13;;;;;;;30.98;17.13;;;10.20;99.90;;;;;;4957729;29;20043;-70
2022/10/13 03:48:39;;;;;;;29.00;17.27;;;10.30;99.90;;;;;;4940479;29;20098;-70
2022/10/13 03:51:10;;;;;;;31.48;17.95;;;10.20;99.90;;;;;;4940529;29;20043;-70
2022/10/13 03:53:36;;;;;;;33.45;17.13;;;10.30;99.90;;;;;;4924564;29;20442;-70
2022/10/13 03:56:03;;;;;;;31.55;17.83;;;10.20;99.90;;;;;;4940306;29;20047;-70
2022/10/13 03:58:29;;;;;;;33.58;17.35;;;10.20;99.90;;;;;;4940338;29;20524;-70
2022/10/13 04:00:56;;;;;;;41.20;19.35;;;10.20;99.90;;;;;;4940602;29;20047;-70
2022/10/13 04:03:23;;;;;;;31.52;17.67;;;10.10;99.90;;;;;;4957558;29;20066;-70
2022/10/13 04:05:48;;;;;;;31.85;17.90;;;10.10;99.90;;;;;;4940180;29;20055;-70
2022/10/13 04:08:14;;;;;;;31.20;18.95;;;10.10;99.90;;;;;;4940264;29;20067;-70
2022/10/13 04:10:40;;;;;;;34.85;18.05;;;10.20;99.90;;;;;;4957405;28;20034;-70
2022/10/13 04:13:06;;;;;;;32.25;17.48;;;10.20;99.90;;;;;;4940148;29;20522;-70
2022/10/13 04:15:39;;;;;;;33.97;18.98;;;10.20;99.90;;;;;;4940041;29;20031;-70
2022/10/13 04:18:05;;;;;;;37.33;19.63;;;10.10;99.90;;;;;;4957299;29;20102;-70
2022/10/13 04:20:35;;;;;;;37.08;19.17;;;10.20;99.90;;;;;;4957116;29;20048;-70
2022/10/13 04:23:01;;;;;;;28.42;17.48;;;10.40;99.90;;;;;;4939964;29;20095;-70
2022/10/13 04:25:26;;;;;;;31.10;18.48;;;10.20;99.90;;;;;;4939866;29;20105;-70
2022/10/13 04:27:52;;;;;;;37.53;18.92;;;;;;;;;;4964501;28;20449;-70
2022/10/13 04:30:18;;;;;;;34.50;20.10;;;10.10;99.90;;;;;;4946025;29;20195;-70
2022/10/13 04:32:43;;;;;;;38.00;19.33;;;10.10;99.90;;;;;;4956745;28;20398;-70
2022/10/13 04:35:09;;;;;;;37.05;20.52;;;10.20;99.90;;;;;;4956893;29;20078;-70
2022/10/13 04:37:35;;;;;;;29.83;19.70;;;10.10;99.90;;;;;;4956768;29;20441;-70
2022/10/13 04:40:00;;;;;;;40.30;22.15;;;10.00;99.90;;;;;;4956898;29;20046;-70
2022/10/13 04:42:26;;;;;;;34.70;20.05;;;10.00;99.90;;;;;;4939449;29;20053;-70
2022/10/13 04:44:51;;;;;;;34.10;18.95;;;10.10;99.90;;;;;;4942514;29;20047;-70
2022/10/13 04:47:17;;;;;;;39.83;20.63;;;10.10;99.90;;;;;;4939522;29;20046;-70
2022/10/13 04:49:42;;;;;;;42.95;21.50;;;10.10;99.90;;;;;;4939410;29;20040;-70
2022/10/13 04:52:08;;;;;;;33.83;21.08;;;;;;;;;;4939732;29;20114;-70
2022/10/13 04:54:34;;;;;;;34.55;21.67;;;10.10;99.90;;;;;;4956358;28;20043;-70
2022/10/13 04:56:59;;;;;;;39.70;21.65;;;10.20;99.90;;;;;;4939382;29;20051;-70
2022/10/13 04:59:25;;;;;;;40.42;22.23;;;10.20;99.90;;;;;;4956585;29;20046;-70
2022/10/13 05:01:51;;;;;;;40.35;21.67;;;;;;;;;;4939190;29;20035;-70
2022/10/13 05:04:16;;;;;;;36.85;22.73;;;10.30;99.90;;;;;;4956388;29;20134;-70
2022/10/13 05:06:43;;;;;;;37.53;22.73;;;10.30;99.90;;;;;;4938961;29;20516;-70
2022/10/13 05:09:14;;;;;;;39.47;22.65;;;10.10;99.90;;;;;;4939347;29;20125;-70
2022/10/13 05:11:40;;;;;;;37.55;23.63;;;10.30;99.90;;;;;;4956328;29;20398;-70
2022/10/13 05:14:05;;;;;;;47.60;25.85;;;10.40;99.90;;;;;;4938972;29;20039;-70
2022/10/13 05:16:31;;;;;;;43.25;23.33;;;10.30;99.90;;;;;;4938900;29;20046;-70
2022/10/13 05:18:56;;;;;;;42.85;23.20;;;10.40;99.90;;;;;;4938911;29;20515;-70
2022/10/13 05:21:25;;;;;;;45.10;23.58;;;10.40;99.90;;;;;;4956267;28;20042;-70
2022/10/13 05:23:54;;;;;;;43.72;24.30;;;10.40;99.90;;;;;;4938991;29;20109;-70
2022/10/13 05:26:21;;;;;;;50.42;25.10;;;10.40;99.90;;;;;;4938859;29;20047;-70
2022/10/13 05:28:47;;;;;;;49.63;25.90;;;;;;;;;;4938714;29;20122;-70
2022/10/13 05:31:14;;;;;;;44.67;24.13;;;10.50;99.90;;;;;;4955901;29;20115;-70
2022/10/13 05:33:40;;;;;;;48.10;25.63;;;10.60;99.90;;;;;;4955998;29;20046;-70
2022/10/13 05:36:30;;;;;;;44.85;25.35;;;10.60;99.90;;;;;;4938553;29;20073;-70
2022/10/13 05:39:01;;;;;;;45.00;25.33;;;10.80;99.90;;;;;;4956478;28;20090;-70
2022/10/13 05:41:28;;;;;;;45.60;23.60;;;10.50;99.90;;;;;;4950777;29;20039;-69
2022/10/13 05:43:57;;;;;;;46.83;25.80;;;10.70;99.90;;;;;;4955011;28;20058;-70
2022/10/13 05:46:23;;;;;;;48.35;24.88;;;10.60;99.90;;;;;;4925115;29;20097;-70
2022/10/13 05:48:49;;;;;;;48.35;25.23;;;10.70;99.90;;;;;;4938451;29;20051;-70
2022/10/13 05:51:19;;;;;;;45.30;25.20;;;10.70;99.90;;;;;;4938297;29;20092;-70
2022/10/13 05:53:50;;;;;;;44.97;25.63;;;10.70;99.90;;;;;;4955506;29;20537;-70
2022/10/13 05:56:19;;;;;;;43.60;25.75;;;10.70;99.90;;;;;;4955374;29;20039;-70
2022/10/13 05:58:49;;;;;;;44.63;25.27;;;10.70;99.90;;;;;;4938158;29;20054;-70
2022/10/13 06:01:20;;;;;;;50.22;25.70;;;10.80;99.90;;;;;;4938237;29;20047;-70
2022/10/13 06:03:47;;;;;;;44.05;23.92;;;10.90;99.90;;;;;;4955194;29;20486;-70
2022/10/13 06:06:14;;;;;;;45.95;25.40;;;10.90;99.90;;;;;;4938043;29;20059;-70
2022/10/13 06:08:41;;;;;;;47.47;25.00;;;10.80;99.90;;;;;;4937936;29;20058;-70
2022/10/13 06:11:07;;;;;;;45.97;24.25;;;11.10;99.90;;;;;;4937953;29;20508;-70
2022/10/13 06:13:32;;;;;;;38.63;23.27;;;11.00;99.90;;;;;;4955065;28;20039;-70
2022/10/13 06:15:58;;;;;;;48.33;24.52;;;10.90;99.90;;;;;;4937908;29;20043;-70
2022/10/13 06:18:24;;;;;;;45.53;25.27;;;10.90;99.90;;;;;;4955398;29;20410;-70
2022/10/13 06:20:49;;;;;;;46.28;23.92;;;10.90;99.90;;;;;;4937900;29;20069;-70
2022/10/13 06:23:15;;;;;;;43.00;25.02;;;10.90;99.90;;;;;;4938195;29;20102;-70
2022/10/13 06:25:51;;;;;;;46.20;25.23;;;10.90;99.90;;;;;;4954801;29;20216;-70
2022/10/13 06:28:17;;;;;;;43.10;24.80;;;10.90;99.90;;;;;;4955313;29;20110;-70
2022/10/13 06:30:52;;;;;;;40.20;24.63;;;11.00;99.90;;;;;;4954824;28;20569;-70
2022/10/13 06:33:18;;;;;;;44.38;23.48;;;11.10;99.90;;;;;;4947093;29;20083;-70
2022/10/13 06:35:44;;;;;;;39.97;23.05;;;11.20;99.90;;;;;;4945485;29;20063;-70
2022/10/13 06:38:10;;;;;;;43.97;24.77;;;;;;;;;;4942996;29;20047;-70
2022/10/13 06:40:36;;;;;;;41.97;24.55;;;;;;;;;;4929360;29;20048;-65
2022/10/13 06:43:02;;;;;;;39.60;23.98;;;11.20;99.90;;;;;;4942908;29;20041;-65
2022/10/13 06:45:28;;;;;;;42.75;23.50;;;11.30;99.90;;;;;;4948775;29;20043;-65
2022/10/13 06:47:54;;;;;;;40.55;22.30;;;11.40;99.90;;;;;;4926771;29;20091;-65
2022/10/13 06:50:20;;;;;;;40.38;23.23;;;11.30;99.90;;;;;;4942418;28;20379;-65
2022/10/13 06:52:46;;;;;;;42.20;24.00;;;;;;;;;;4937117;29;20047;-65
2022/10/13 06:55:12;;;;;;;38.95;23.10;;;11.40;99.90;;;;;;4948665;29;20461;-65
2022/10/13 06:57:37;;;;;;;40.95;22.30;;;11.40;99.90;;;;;;4941170;29;20044;-67
2022/10/13 07:00:04;;;;;;;39.60;23.27;;;11.50;99.90;;;;;;4949999;28;20074;-67
2022/10/13 07:02:30;;;;;;;41.40;23.27;;;11.50;99.90;;;;;;4929613;29;20047;-66
2022/10/13 07:04:55;;;;;;;39.00;23.83;;;11.40;99.90;;;;;;4951526;29;20458;-66
2022/10/13 07:07:21;;;;;;;41.65;23.17;;;;;;;;;;4947269;29;20055;-67
2022/10/13 07:09:47;;;;;;;40.33;23.77;;;11.40;99.90;;;;;;4961210;28;20147;-67
2022/10/13 07:12:13;;;;;;;42.92;22.65;;;11.40;99.90;;;;;;4958824;28;20056;-66
2022/10/13 07:14:39;;;;;;;38.20;22.33;;;11.60;99.90;;;;;;4957648;29;20041;-66
2022/10/13 07:17:05;;;;;;;40.40;22.67;;;11.60;99.90;;;;;;4961856;28;20063;-66
2022/10/13 07:19:31;;;;;;;38.70;23.17;;;;;;;;;;4957475;29;20035;-67
2022/10/13 07:21:56;;;;;;;38.45;21.38;;;11.70;99.90;;;;;;4952477;28;20407;-66
2022/10/13 07:24:22;;;;;;;43.63;22.25;;;11.60;99.90;;;;;;4940432;29;20047;-66
2022/10/13 07:26:47;;;;;;;41.60;23.33;;;11.60;99.90;;;;;;4945876;28;20115;-67
2022/10/13 07:29:13;;;;;;;44.20;23.13;;;11.60;99.90;;;;;;4952707;29;20043;-67
2022/10/13 07:31:39;;;;;;;36.67;22.55;;;;;;;;;;4942758;29;20077;-67
2022/10/13 07:34:07;;;;;;;42.42;23.65;;;;;;;;;;4939805;29;20047;-67
2022/10/13 07:36:34;;;;;;;46.42;22.83;;;;;;;;;;4953013;29;20054;-66
2022/10/13 07:39:01;;;;;;;42.00;24.48;;;11.60;99.90;;;;;;4948929;29;20492;-65
2022/10/13 07:41:27;;;;;;;38.75;23.30;;;11.80;99.90;;;;;;4939766;29;20055;-64
2022/10/13 07:43:56;;;;;;;40.30;23.60;;;;;;;;;;4956548;29;20043;-64
2022/10/13 07:46:23;;;;;;;49.90;26.50;;;11.90;99.90;;;;;;4956416;28;20040;-64
2022/10/13 07:48:48;;;;;;;41.22;22.92;;;11.90;99.90;;;;;;4968473;28;20043;-64
2022/10/13 07:51:14;;;;;;;44.08;24.25;;;11.90;99.90;;;;;;4958719;28;20069;-64
2022/10/13 07:53:41;;;;;;;45.33;24.65;;;;;;;;;;4966708;28;20039;-64
2022/10/13 07:56:09;;;;;;;39.75;23.70;;;12.00;99.90;;;;;;4960446;28;20071;-64
2022/10/13 07:58:42;;;;;;;48.75;25.10;;;12.30;99.90;;;;;;4956955;28;20121;-64
2022/10/13 08:01:09;;;;;;;47.28;23.52;;;12.00;99.90;;;;;;4957117;29;20039;-64
2022/10/13 08:03:34;;;;;;;40.28;24.70;;;12.10;99.90;;;;;;4939725;29;20043;-64
2022/10/13 08:06:03;;;;;;;42.55;23.92;;;12.10;99.90;;;;;;4939141;29;20528;-64
2022/10/13 08:08:29;;;;;;;39.55;22.83;;;12.20;99.90;;;;;;4956088;28;20521;-64
2022/10/13 08:11:03;;;;;;;44.60;24.35;;;12.30;99.90;;;;;;4939452;29;20126;-64
2022/10/13 08:13:28;;;;;;;42.28;23.58;;;12.20;99.90;;;;;;4939493;29;20050;-64
2022/10/13 08:15:54;;;;;;;43.03;24.48;;;12.20;99.90;;;;;;4939264;29;20043;-64
2022/10/13 08:18:20;;;;;;;44.00;24.33;;;;;;;;;;4939273;29;20054;-64
2022/10/13 08:20:45;;;;;;;42.90;25.00;;;12.30;99.90;;;;;;4956603;29;20023;-64
2022/10/13 08:23:12;;;;;;;43.72;23.90;;;12.30;99.90;;;;;;4955831;29;20047;-64
2022/10/13 08:25:40;;;;;;;52.95;28.73;;;12.30;99.90;;;;;;4939329;29;20050;-65
2022/10/13 08:28:12;;;;;;;45.78;26.02;;;12.30;99.90;;;;;;4956461;29;20449;-65
2022/10/13 08:30:37;;;;;;;45.90;26.45;;;12.40;99.90;;;;;;4956362;29;20043;-64
2022/10/13 08:33:03;;;;;;;50.92;28.17;;;12.40;99.90;;;;;;4956113;29;20046;-65
2022/10/13 08:35:28;;;;;;;42.22;26.65;;;12.60;99.90;;;;;;4956134;28;20039;-64
2022/10/13 08:37:54;;;;;;;44.08;25.23;;;12.50;99.90;;;;;;4939155;29;20462;-64
2022/10/13 08:40:21;;;;;;;47.05;28.55;;;12.60;99.90;;;;;;4956422;28;20434;-64
2022/10/13 08:42:47;;;;;;;45.80;28.48;;;12.60;99.90;;;;;;4939147;29;20397;-64
2022/10/13 08:45:19;;;;;;;45.88;27.38;;;12.50;99.90;;;;;;4956256;29;20043;-65
2022/10/13 08:47:53;;;;;;;48.50;28.63;;;12.50;99.90;;;;;;4955836;28;20046;-64
2022/10/13 08:50:25;;;;;;;43.05;27.52;;;12.80;99.90;;;;;;4956245;29;20043;-65
2022/10/13 08:52:58;;;;;;;52.00;27.40;;;12.50;99.90;;;;;;4938785;28;20406;-65
2022/10/13 08:55:27;;;;;;;43.72;28.00;;;12.60;99.90;;;;;;4946525;28;20070;-65
2022/10/13 08:57:53;;;;;;;45.63;28.58;;;12.60;99.90;;;;;;4955857;29;20043;-65
2022/10/13 09:00:19;;;;;;;51.35;28.48;;;12.60;99.90;;;;;;4955654;29;20043;-65
2022/10/13 09:02:49;;;;;;;42.55;27.05;;;12.60;99.90;;;;;;4938758;29;20039;-64
2022/10/13 09:05:34;;;;;;;45.92;26.08;;;12.60;99.90;;;;;;4938573;29;20054;-64
2022/10/13 09:08:01;;;;;;;46.63;28.92;;;12.60;99.90;;;;;;4955269;29;20050;-64
2022/10/13 09:10:26;;;;;;;44.90;28.08;;;12.80;99.90;;;;;;4955451;29;20039;-64
2022/10/13 09:12:52;;;;;;;51.28;27.40;;;12.80;99.90;;;;;;4955566;29;20118;-65
2022/10/13 09:15:18;;;;;;;50.50;27.63;;;12.70;99.90;;;;;;4937694;29;20074;-65
2022/10/13 09:17:52;;;;;;;46.80;28.23;;;12.70;99.90;;;;;;4955737;28;20071;-64
2022/10/13 09:20:24;;;;;;;47.65;27.67;;;12.70;99.90;;;;;;4937437;28;20444;-65
2022/10/13 09:23:13;;;;;;;44.17;27.77;;;12.70;99.90;;;;;;4955206;28;20498;-65
2022/10/13 09:25:42;;;;;;;49.75;29.58;;;12.90;99.90;;;;;;4938144;29;20046;-65
2022/10/13 09:28:24;;;;;;;46.10;27.25;;;12.60;99.90;;;;;;4941444;29;20047;-65
2022/10/13 09:31:13;;;;;;;41.38;25.73;;;12.60;99.90;;;;;;4939873;29;20047;-65
2022/10/13 09:33:39;;;;;;;42.13;26.42;;;12.70;99.90;;;;;;4931440;29;20047;-65
2022/10/13 09:36:10;;;;;;;39.35;25.33;;;12.70;99.90;;;;;;4937601;29;20142;-64
2022/10/13 09:38:36;;;;;;;38.47;23.60;;;12.70;99.90;;;;;;4937779;29;20047;-64
2022/10/13 09:41:08;;;;;;;38.80;24.45;;;12.70;99.90;;;;;;4955142;29;20027;-64
2022/10/13 09:43:39;;;;;;;39.10;24.85;;;12.80;99.90;;;;;;4937785;29;20043;-64
2022/10/13 09:46:21;;;;;;;44.78;26.00;;;12.90;99.90;;;;;;4954730;29;20032;-64
2022/10/13 09:48:50;;;;;;;41.55;25.48;;;12.70;99.90;;;;;;4954744;28;20516;-64
2022/10/13 09:51:36;;;;;;;41.63;26.02;;;13.00;99.90;;;;;;4937498;29;20399;-64
2022/10/13 09:54:02;;;;;;;41.95;26.67;;;12.80;99.90;;;;;;4937534;29;20065;-64
2022/10/13 09:56:47;;;;;;;43.80;26.10;;;12.90;99.90;;;;;;4954452;29;20043;-64
2022/10/13 09:59:37;;;;;;;42.83;27.33;;;13.00;99.90;;;;;;4955361;29;20571;-64
2022/10/13 10:02:35;;;;;;;48.95;27.38;;;12.80;99.90;;;;;;4955576;29;20035;-65
2022/10/13 10:05:12;;;;;;;43.30;27.70;;;12.80;99.90;;;;;;4955479;29;20039;-64
2022/10/13 10:07:38;;;;;;;45.10;27.20;;;12.90;99.90;;;;;;4955052;29;20109;-64
2022/10/13 10:10:14;;;;;;;45.28;27.90;;;13.00;99.90;;;;;;4955090;29;20047;-65
2022/10/13 10:12:42;;;;;;;50.30;28.85;;;13.00;99.90;;;;;;4938031;29;20494;-65
2022/10/13 10:15:27;;;;;;;42.58;27.00;;;13.30;99.90;;;;;;4955211;29;20101;-64
2022/10/13 10:17:58;;;;;;;53.10;31.48;;;13.00;99.90;;;;;;4938308;29;20047;-64
2022/10/13 10:20:39;;;;;;;58.42;31.50;;;13.00;99.90;;;;;;4954956;28;20045;-64
2022/10/13 10:23:48;;;;;;;54.00;31.85;;;13.10;99.90;;;;;;4937627;29;20079;-65
2022/10/13 10:26:38;;;;;;;52.80;31.17;;;13.20;99.90;;;;;;4930540;28;20530;-65
2022/10/13 10:29:26;;;;;;;48.45;29.58;;;13.00;99.90;;;;;;4951480;29;20456;-64
2022/10/13 10:32:14;;;;;;;49.95;29.98;;;12.90;99.90;;;;;;4936948;28;20038;-65
2022/10/13 10:34:52;;;;;;;53.17;31.35;;;13.20;99.90;;;;;;4941940;29;20090;-65
2022/10/13 10:37:45;;;;;;;52.53;30.23;;;13.10;99.90;;;;;;4954717;29;20122;-65
2022/10/13 10:40:26;;;;;;;58.25;33.00;;;13.30;99.90;;;;;;4960374;28;20049;-65
2022/10/13 10:42:52;;;;;;;58.03;31.05;;;;;;;;;;4963304;28;20051;-65
2022/10/13 10:45:32;;;;;;;52.08;31.92;;;13.20;99.90;;;;;;4967263;28;20385;-65
2022/10/13 10:48:18;;;;;;;54.22;31.20;;;13.40;99.90;;;;;;4939792;29;20122;-65
2022/10/13 10:50:44;;;;;;;53.20;31.27;;;13.00;99.90;;;;;;4944052;28;20117;-65
2022/10/13 10:53:28;;;;;;;55.20;31.48;;;13.20;99.90;;;;;;4954172;29;20529;-65
2022/10/13 10:56:03;;;;;;;57.78;33.28;;;13.20;99.90;;;;;;4931471;29;20078;-65
2022/10/13 10:58:43;;;;;;;54.72;31.52;;;13.20;99.90;;;;;;4954314;29;20052;-65
2022/10/13 11:01:14;;;;;;;57.55;31.92;;;13.20;99.90;;;;;;4946308;29;20062;-65
2022/10/13 11:03:49;;;;;;;58.72;32.60;;;13.30;99.90;;;;;;4937092;29;20122;-65
2022/10/13 11:06:15;;;;;;;56.22;30.65;;;13.30;99.90;;;;;;4937320;29;20051;-65
2022/10/13 11:08:43;;;;;;;53.60;32.53;;;13.30;99.90;;;;;;4954355;29;20395;-65
2022/10/13 11:11:32;;;;;;;55.25;32.78;;;13.50;99.90;;;;;;4954641;29;20047;-65
2022/10/13 11:14:03;;;;;;;52.13;31.48;;;13.70;99.90;;;;;;4937124;29;20082;-65
2022/10/13 11:16:36;;;;;;;53.55;30.02;;;13.60;99.90;;;;;;4937234;29;20079;-65
2022/10/13 11:19:21;;;;;;;51.03;30.30;;;13.70;99.90;;;;;;4954601;28;20118;-65
2022/10/13 11:21:58;;;;;;;54.58;31.80;;;13.80;99.90;;;;;;4937548;29;20463;-65
2022/10/13 11:24:33;;;;;;;51.95;30.80;;;13.60;99.90;;;;;;4950111;29;20115;-65
2022/10/13 11:27:23;;;;;;;54.88;31.10;;;13.70;99.90;;;;;;4937473;29;20073;-64
2022/10/13 11:29:57;;;;;;;47.78;29.13;;;13.90;99.90;;;;;;4949277;29;20585;-65
2022/10/13 11:32:40;;;;;;;46.65;30.35;;;14.00;99.90;;;;;;4936953;29;20051;-65
2022/10/13 11:35:05;;;;;;;50.38;29.48;;;13.80;99.90;;;;;;4936963;29;20059;-65
2022/10/13 11:38:03;;;;;;;41.42;27.33;;;14.00;99.90;;;;;;4954579;29;20442;-64
2022/10/13 11:40:42;;;;;;;53.42;28.58;;;14.00;99.90;;;;;;4937066;29;20054;-65
2022/10/13 11:43:33;;;;;;;45.60;27.05;;;13.90;99.90;;;;;;4943648;29;20502;-65
2022/10/13 11:46:19;;;;;;;50.17;28.30;;;13.80;99.90;;;;;;4941613;29;20494;-65
2022/10/13 11:49:29;;;;;;;53.00;29.08;;;13.90;99.90;;;;;;4940471;29;20051;-66
2022/10/13 11:52:29;;;;;;;46.53;26.35;;;13.80;99.90;;;;;;4949734;29;20215;-65
2022/10/13 11:55:12;;;;;;;47.92;27.88;;;14.00;99.90;;;;;;4957756;29;20043;-65
2022/10/13 11:57:38;;;;;;;44.78;27.30;;;14.10;99.90;;;;;;4940453;29;20051;-66
2022/10/13 12:00:04;;;;;;;42.58;26.50;;;13.80;99.90;;;;;;4939944;29;20402;-66
2022/10/13 12:02:29;;;;;;;48.75;27.05;;;13.80;99.90;;;;;;4940381;29;20071;-66
2022/10/13 12:05:21;;;;;;;42.83;27.67;;;14.00;99.90;;;;;;4957597;29;20089;-66
2022/10/13 12:07:48;;;;;;;44.13;25.65;;;13.90;99.90;;;;;;4940175;29;20059;-66
2022/10/13 12:10:24;;;;;;;40.35;26.13;;;14.00;99.90;;;;;;4957417;28;20039;-65
2022/10/13 12:12:50;;;;;;;36.40;24.52;;;13.90;99.90;;;;;;4940036;29;20043;-65
2022/10/13 12:15:27;;;;;;;37.42;25.50;;;14.00;99.90;;;;;;4939874;28;20126;-65
2022/10/13 12:17:53;;;;;;;42.75;26.23;;;13.90;99.90;;;;;;4940109;29;20055;-65
2022/10/13 12:20:24;;;;;;;38.22;24.90;;;13.90;99.90;;;;;;4939930;29;20043;-65
2022/10/13 12:22:52;;;;;;;45.08;25.00;;;13.90;99.90;;;;;;4940205;29;20489;-64
2022/10/13 12:25:20;;;;;;;37.63;25.67;;;14.00;99.90;;;;;;4939865;29;20093;-65
2022/10/13 12:27:49;;;;;;;41.30;25.27;;;14.20;99.90;;;;;;4939917;29;20123;-65
2022/10/13 12:30:25;;;;;;;42.20;25.42;;;14.20;99.90;;;;;;4957091;28;20517;-65
2022/10/13 12:32:53;;;;;;;37.55;25.08;;;14.00;99.90;;;;;;4939763;29;20085;-65
2022/10/13 12:35:26;;;;;;;39.65;25.40;;;14.20;99.90;;;;;;4939644;29;20058;-65
2022/10/13 12:37:53;;;;;;;39.13;25.30;;;14.10;99.90;;;;;;4956988;29;20039;-65
2022/10/13 12:40:20;;;;;;;41.35;24.45;;;13.90;99.90;;;;;;4957121;29;20042;-65
2022/10/13 12:42:47;;;;;;;37.35;23.58;;;;;;;;;;4939593;29;20101;-65
2022/10/13 12:45:33;;;;;;;37.22;25.33;;;14.10;99.90;;;;;;4940763;29;20553;-65
2022/10/13 12:47:59;;;;;;;40.47;26.13;;;14.10;99.90;;;;;;4955099;29;20035;-65
2022/10/13 12:50:27;;;;;;;42.88;26.30;;;14.00;99.90;;;;;;4939569;29;20387;-64
2022/10/13 12:53:01;;;;;;;46.55;27.33;;;14.10;99.90;;;;;;4956708;29;20047;-66